createdAt,value
2022-10-16T00:01:41.545Z,0.30
2022-10-16T00:04:10.275Z,1.38
2022-10-16T00:06:38.290Z,0.88
2022-10-16T00:09:06.783Z,0.40
2022-10-16T00:11:36.409Z,1.02
2022-10-16T00:14:06.372Z,1.98
2022-10-16T00:16:34.706Z,1.65
2022-10-16T00:19:02.738Z,0.88
2022-10-16T00:21:31.943Z,0.60
2022-10-16T00:24:02.437Z,0.73
2022-10-16T00:26:31.875Z,0.65
2022-10-16T00:28:59.251Z,0.10
2022-10-16T00:31:27.612Z,1.38
2022-10-16T00:33:55.251Z,0.43
2022-10-16T00:36:24.335Z,0.82
2022-10-16T00:38:57.186Z,1.23
2022-10-16T00:41:28.815Z,0.40
2022-10-16T00:44:01.707Z,0.38
2022-10-16T00:46:41.487Z,2.03
2022-10-16T00:49:13.865Z,1.65
2022-10-16T00:51:48.006Z,0.35
2022-10-16T00:54:23.552Z,1.17
2022-10-16T00:56:51.298Z,0.57
2022-10-16T00:59:27.222Z,2.80
2022-10-16T01:01:58.504Z,0.82
2022-10-16T01:04:27.692Z,1.25
2022-10-16T01:07:32.693Z,1.10
2022-10-16T01:10:28.308Z,0.30
2022-10-16T01:13:07.333Z,1.38
2022-10-16T01:15:46.919Z,0.63
2022-10-16T01:18:31.774Z,1.20
2022-10-16T01:21:05.000Z,1.17
2022-10-16T01:24:10.126Z,0.55
2022-10-16T01:26:37.438Z,0.47
2022-10-16T01:29:18.001Z,0.45
2022-10-16T01:31:51.513Z,0.82
2022-10-16T01:34:26.052Z,1.17
2022-10-16T01:37:03.440Z,0.50
2022-10-16T01:39:34.464Z,1.23
2022-10-16T01:42:11.244Z,0.28
2022-10-16T01:44:40.610Z,0.55
2022-10-16T01:47:11.303Z,0.40
2022-10-16T01:49:41.999Z,0.82
2022-10-16T01:52:15.446Z,0.70
2022-10-16T01:54:47.215Z,1.17
2022-10-16T01:57:17.244Z,1.73
2022-10-16T01:59:49.534Z,1.42
2022-10-16T02:02:19.443Z,0.22
2022-10-16T02:04:57.288Z,1.15
2022-10-16T02:07:24.791Z,0.60
2022-10-16T02:09:52.196Z,2.47
2022-10-16T02:12:29.099Z,0.47
2022-10-16T02:14:59.260Z,1.00
2022-10-16T02:17:29.282Z,1.05
2022-10-16T02:20:01.391Z,0.55
2022-10-16T02:22:34.696Z,0.35
2022-10-16T02:25:13.464Z,0.30
2022-10-16T02:27:48.780Z,1.63
2022-10-16T02:30:26.345Z,0.52
2022-10-16T02:32:55.589Z,0.57
2022-10-16T02:35:25.271Z,0.35
2022-10-16T02:37:54.579Z,1.20
2022-10-16T02:40:25.184Z,0.50
2022-10-16T02:42:54.740Z,0.52
2022-10-16T02:45:23.046Z,0.93
2022-10-16T02:47:50.582Z,1.60
2022-10-16T02:50:18.034Z,0.47
2022-10-16T02:52:48.363Z,1.27
2022-10-16T02:55:16.146Z,0.25
2022-10-16T02:57:43.581Z,0.47
2022-10-16T03:00:16.249Z,0.40
2022-10-16T03:06:24.474Z,0.40
2022-10-16T03:08:53.827Z,0.88
2022-10-16T03:11:21.237Z,1.23
2022-10-16T03:13:48.833Z,0.70
2022-10-16T03:16:16.364Z,0.60
2022-10-16T03:18:44.003Z,0.85
2022-10-16T03:21:11.431Z,1.65
2022-10-16T03:23:39.012Z,0.75
2022-10-16T03:26:06.553Z,0.43
2022-10-16T03:28:34.346Z,0.63
2022-10-16T03:31:05.731Z,0.50
2022-10-16T03:33:33.209Z,0.65
2022-10-16T03:36:01.440Z,0.40
2022-10-16T03:38:43.659Z,1.27
2022-10-16T03:41:11.148Z,0.52
2022-10-16T03:43:38.559Z,1.50
2022-10-16T03:46:06.380Z,0.60
2022-10-16T03:48:35.321Z,1.67
2022-10-16T03:51:03.699Z,1.58
2022-10-16T03:53:31.877Z,1.38
2022-10-16T03:55:59.938Z,0.65
2022-10-16T03:58:27.956Z,0.85
2022-10-16T04:00:56.827Z,1.20
2022-10-16T04:03:24.859Z,0.17
2022-10-16T04:05:53.428Z,0.68
2022-10-16T04:08:24.690Z,0.35
2022-10-16T04:10:56.000Z,0.43
2022-10-16T04:13:24.267Z,0.10
2022-10-16T04:15:51.610Z,0.20
2022-10-16T04:18:19.099Z,0.50
2022-10-16T04:20:46.589Z,0.65
2022-10-16T04:23:14.139Z,0.45
2022-10-16T04:25:44.701Z,0.47
2022-10-16T04:28:12.378Z,0.45
2022-10-16T04:30:40.152Z,0.32
2022-10-16T04:33:10.430Z,0.82
2022-10-16T04:35:38.230Z,1.30
2022-10-16T04:38:06.072Z,1.60
2022-10-16T04:40:33.666Z,0.82
2022-10-16T04:43:01.013Z,0.63
2022-10-16T04:45:28.479Z,1.52
2022-10-16T04:48:00.351Z,0.57
2022-10-16T04:50:28.096Z,1.63
2022-10-16T04:52:56.133Z,1.33
2022-10-16T04:55:23.891Z,0.20
2022-10-16T04:57:51.655Z,0.70
2022-10-16T05:00:19.373Z,0.30
2022-10-16T05:02:47.541Z,1.08
2022-10-16T05:05:15.710Z,0.73
2022-10-16T05:07:43.665Z,1.00
2022-10-16T05:10:11.605Z,1.23
2022-10-16T05:12:42.645Z,1.10
2022-10-16T05:15:11.474Z,0.10
2022-10-16T05:17:44.865Z,0.30
2022-10-16T05:20:13.350Z,0.65
2022-10-16T05:22:40.809Z,0.75
2022-10-16T05:25:08.416Z,0.80
2022-10-16T05:27:36.617Z,0.68
2022-10-16T05:30:06.477Z,1.45
2022-10-16T05:32:38.925Z,0.90
2022-10-16T05:35:12.672Z,0.60
2022-10-16T05:37:40.311Z,1.10
2022-10-16T05:40:13.595Z,1.00
2022-10-16T05:42:42.035Z,1.95
2022-10-16T05:45:13.077Z,0.88
2022-10-16T05:47:41.147Z,0.85
2022-10-16T05:50:12.080Z,1.38
2022-10-16T05:52:39.600Z,0.65
2022-10-16T05:55:07.804Z,1.00
2022-10-16T05:57:37.850Z,0.10
2022-10-16T06:00:06.712Z,0.73
2022-10-16T06:02:34.189Z,0.47
2022-10-16T06:05:01.758Z,0.60
2022-10-16T06:07:29.655Z,1.98
2022-10-16T06:09:57.887Z,1.85
2022-10-16T06:12:28.478Z,0.80
2022-10-16T06:14:56.376Z,0.85
2022-10-16T06:17:24.643Z,1.23
2022-10-16T06:19:55.074Z,1.30
2022-10-16T06:22:22.551Z,0.85
2022-10-16T06:24:53.531Z,1.98
2022-10-16T06:27:21.705Z,1.02
2022-10-16T06:29:49.197Z,0.47
2022-10-16T06:32:20.149Z,0.38
2022-10-16T06:34:48.114Z,1.30
2022-10-16T06:37:21.202Z,0.73
2022-10-16T06:39:52.355Z,0.40
2022-10-16T06:42:23.055Z,1.65
2022-10-16T06:44:51.228Z,0.55
2022-10-16T06:47:22.113Z,1.50
2022-10-16T06:49:53.438Z,1.35
2022-10-16T06:52:28.775Z,0.73
2022-10-16T06:54:56.899Z,1.55
2022-10-16T06:57:27.014Z,0.85
2022-10-16T07:00:01.503Z,0.77
2022-10-16T07:02:29.736Z,0.32
2022-10-16T07:04:57.425Z,0.35
2022-10-16T07:07:28.093Z,0.47
2022-10-16T07:09:55.722Z,1.25
2022-10-16T07:12:26.530Z,0.52
2022-10-16T07:14:54.559Z,0.88
2022-10-16T07:17:28.673Z,1.50
2022-10-16T07:20:01.300Z,2.35
2022-10-16T07:22:30.472Z,1.70
2022-10-16T07:24:57.886Z,0.63
2022-10-16T07:27:28.568Z,0.65
2022-10-16T07:30:02.614Z,1.17
2022-10-16T07:32:34.096Z,0.50
2022-10-16T07:35:06.680Z,0.40
2022-10-16T07:37:34.211Z,0.50
2022-10-16T07:40:05.692Z,1.58
2022-10-16T07:42:36.831Z,0.60
2022-10-16T07:45:07.526Z,0.80
2022-10-16T07:47:35.145Z,1.02
2022-10-16T07:50:05.794Z,1.02
2022-10-16T07:52:37.373Z,0.68
2022-10-16T07:55:05.910Z,0.63
2022-10-16T07:57:36.189Z,0.80
2022-10-16T08:00:04.537Z,0.73
2022-10-16T08:02:38.592Z,1.08
2022-10-16T08:05:09.674Z,0.77
2022-10-16T08:07:37.762Z,0.70
2022-10-16T08:10:20.809Z,0.63
2022-10-16T08:12:52.051Z,0.63
2022-10-16T08:15:23.162Z,0.95
2022-10-16T08:17:59.286Z,0.38
2022-10-16T08:20:31.184Z,0.10
2022-10-16T08:23:10.058Z,0.65
2022-10-16T08:25:43.101Z,1.70
2022-10-16T08:28:12.250Z,0.43
2022-10-16T08:30:45.553Z,0.55
2022-10-16T08:33:13.523Z,1.10
2022-10-16T08:35:41.825Z,1.52
2022-10-16T08:38:15.762Z,0.90
2022-10-16T08:40:49.904Z,0.75
2022-10-16T08:43:23.253Z,1.75
2022-10-16T08:45:57.053Z,0.37
2022-10-16T08:48:37.080Z,0.93
2022-10-16T08:51:06.356Z,1.10
2022-10-16T08:53:54.948Z,0.80
2022-10-16T08:56:23.645Z,0.50
2022-10-16T08:58:56.554Z,0.50
2022-10-16T09:01:42.158Z,0.80
2022-10-16T09:04:34.534Z,0.80
2022-10-16T09:07:18.836Z,0.52
2022-10-16T09:10:14.504Z,0.30
2022-10-16T09:13:07.435Z,0.73
2022-10-16T09:15:56.138Z,0.52
2022-10-16T09:18:43.820Z,1.15
2022-10-16T09:21:42.402Z,0.82
2022-10-16T09:24:18.925Z,0.65
2022-10-16T09:26:50.674Z,0.57
2022-10-16T09:29:23.818Z,0.57
2022-10-16T09:31:53.920Z,0.75
2022-10-16T09:34:29.931Z,0.47
2022-10-16T09:37:05.157Z,0.88
2022-10-16T09:39:55.203Z,0.20
2022-10-16T09:42:35.447Z,0.68
2022-10-16T09:45:06.806Z,0.60
2022-10-16T09:50:37.396Z,0.30
2022-10-16T09:53:16.454Z,0.50
2022-10-16T09:55:58.182Z,0.50
2022-10-16T09:58:26.297Z,0.30
2022-10-16T10:00:59.452Z,0.65
2022-10-16T10:03:40.420Z,0.38
2022-10-16T10:06:19.148Z,0.73
2022-10-16T10:09:02.120Z,0.88
2022-10-16T10:11:49.609Z,0.43
2022-10-16T10:14:33.500Z,0.13
2022-10-16T10:17:12.624Z,0.57
2022-10-16T10:19:57.640Z,0.45
2022-10-16T10:22:39.686Z,0.68
2022-10-16T10:25:37.329Z,0.20
2022-10-16T10:28:14.238Z,0.70
2022-10-16T10:31:12.706Z,1.17
2022-10-16T10:33:54.400Z,1.02
2022-10-16T10:36:33.454Z,0.35
2022-10-16T10:39:15.107Z,1.05
2022-10-16T10:44:49.376Z,0.57
2022-10-16T10:47:38.805Z,0.50
2022-10-16T10:50:42.412Z,0.40
2022-10-16T10:53:31.391Z,0.68
2022-10-16T10:56:05.918Z,0.40
2022-10-16T10:58:51.717Z,1.63
2022-10-16T11:01:35.484Z,0.75
2022-10-16T11:04:37.016Z,0.93
2022-10-16T11:09:59.533Z,0.70
2022-10-16T11:12:41.396Z,0.17
2022-10-16T11:15:18.172Z,1.13
2022-10-16T11:17:53.067Z,0.52
2022-10-16T11:20:48.168Z,0.68
2022-10-16T11:23:26.551Z,0.65
2022-10-16T11:26:01.898Z,0.52
2022-10-16T11:28:44.313Z,0.43
2022-10-16T11:31:17.898Z,0.47
2022-10-16T11:33:47.597Z,0.30
2022-10-16T11:36:56.834Z,1.33
2022-10-16T11:39:31.565Z,0.15
2022-10-16T11:42:05.755Z,0.50
2022-10-16T11:45:01.956Z,0.30
2022-10-16T11:47:59.152Z,0.55
2022-10-16T11:50:55.018Z,0.32
2022-10-16T11:53:54.843Z,0.50
2022-10-16T11:56:26.313Z,0.30
2022-10-16T11:59:04.961Z,0.10
2022-10-16T12:01:47.264Z,0.40
2022-10-16T12:04:39.642Z,0.43
2022-10-16T12:07:21.575Z,0.15
2022-10-16T12:09:52.100Z,0.40
2022-10-16T12:12:41.455Z,0.70
2022-10-16T12:15:47.354Z,0.30
2022-10-16T12:18:25.699Z,0.10
2022-10-16T12:21:01.554Z,0.20
2022-10-16T12:23:31.950Z,0.65
2022-10-16T12:26:02.146Z,0.40
2022-10-16T12:28:35.245Z,0.50
2022-10-16T12:31:08.853Z,0.50
2022-10-16T12:33:40.604Z,0.60
2022-10-16T12:36:36.544Z,0.30
2022-10-16T12:39:04.766Z,0.75
2022-10-16T12:41:34.918Z,1.02
2022-10-16T12:44:05.120Z,0.30
2022-10-16T12:46:41.471Z,1.05
2022-10-16T12:49:18.378Z,0.20
2022-10-16T12:51:46.175Z,0.13
2022-10-16T12:54:15.119Z,0.75
2022-10-16T12:56:55.479Z,0.15
2022-10-16T12:59:32.021Z,0.57
2022-10-16T13:02:58.772Z,0.40
2022-10-16T13:08:18.716Z,0.43
2022-10-16T13:10:58.185Z,0.22
2022-10-16T13:13:33.531Z,0.30
2022-10-16T13:16:37.289Z,1.02
2022-10-16T13:19:22.719Z,0.47
2022-10-16T13:22:01.758Z,0.38
2022-10-16T13:24:37.656Z,0.17
2022-10-16T13:27:17.242Z,0.70
2022-10-16T13:29:44.886Z,0.30
2022-10-16T13:32:15.933Z,0.40
2022-10-16T13:34:48.700Z,0.52
2022-10-16T13:37:22.334Z,0.30
2022-10-16T13:39:50.573Z,0.32
2022-10-16T13:42:28.255Z,0.63
2022-10-16T13:44:57.260Z,0.52
2022-10-16T13:47:28.173Z,0.88
2022-10-16T13:52:30.042Z,1.20
2022-10-16T13:55:00.928Z,0.32
2022-10-16T13:57:32.614Z,0.40
2022-10-16T14:00:00.475Z,0.55
2022-10-16T14:02:34.716Z,0.20
2022-10-16T14:05:05.102Z,0.50
2022-10-16T14:07:35.325Z,0.15
2022-10-16T14:10:08.076Z,0.32
2022-10-16T14:12:36.350Z,0.43
2022-10-16T14:15:04.191Z,0.30
2022-10-16T14:17:36.917Z,1.48
2022-10-16T14:20:07.097Z,0.98
2022-10-16T14:22:40.477Z,0.37
2022-10-16T14:25:20.376Z,0.35
2022-10-16T14:28:17.723Z,0.50
2022-10-16T14:31:00.664Z,0.35
2022-10-16T14:33:31.105Z,0.45
2022-10-16T14:36:10.813Z,0.85
2022-10-16T14:38:49.255Z,0.43
2022-10-16T14:41:21.182Z,1.23
2022-10-16T14:43:56.284Z,0.20
2022-10-16T14:46:32.793Z,0.20
2022-10-16T14:49:19.058Z,0.25
2022-10-16T14:51:47.196Z,0.40
2022-10-16T14:54:19.194Z,0.30
2022-10-16T14:56:52.725Z,0.38
2022-10-16T14:59:30.008Z,0.40
2022-10-16T15:01:57.966Z,0.45
2022-10-16T15:04:25.608Z,1.05
2022-10-16T15:06:53.127Z,0.47
2022-10-16T15:09:23.151Z,0.20
2022-10-16T15:11:53.674Z,0.60
2022-10-16T15:14:23.685Z,0.65
2022-10-16T15:16:51.185Z,1.15
2022-10-16T15:19:18.572Z,0.38
2022-10-16T15:21:46.490Z,0.57
2022-10-16T15:24:16.690Z,0.40
2022-10-16T15:26:47.201Z,1.02
2022-10-16T15:29:15.289Z,1.00
2022-10-16T15:31:48.545Z,0.68
2022-10-16T15:34:21.981Z,1.23
2022-10-16T15:36:52.410Z,1.92
2022-10-16T15:39:25.866Z,0.68
2022-10-16T15:44:24.414Z,0.57
2022-10-16T15:46:51.797Z,0.95
2022-10-16T15:49:19.239Z,0.75
2022-10-16T15:51:47.297Z,0.38
2022-10-16T15:54:14.799Z,1.27
2022-10-16T15:56:42.359Z,1.38
2022-10-16T15:59:09.999Z,1.35
2022-10-16T16:01:37.628Z,0.80
2022-10-16T16:04:10.827Z,0.57
2022-10-16T16:06:42.929Z,1.20
2022-10-16T16:09:10.439Z,0.80
2022-10-16T16:11:38.459Z,1.63
2022-10-16T16:14:13.885Z,0.80
2022-10-16T16:16:44.597Z,1.45
2022-10-16T16:19:15.245Z,1.50
2022-10-16T16:21:42.810Z,1.83
2022-10-16T16:24:10.465Z,2.30
2022-10-16T16:26:38.146Z,1.73
2022-10-16T16:29:05.839Z,1.08
2022-10-16T16:31:33.865Z,1.63
2022-10-16T16:34:02.033Z,1.75
2022-10-16T16:36:33.383Z,1.77
2022-10-16T16:39:03.925Z,2.47
2022-10-16T16:41:33.961Z,2.13
2022-10-16T16:44:08.430Z,1.75
2022-10-16T16:46:38.691Z,3.17
2022-10-16T16:49:07.153Z,2.38
2022-10-16T16:51:37.078Z,2.72
2022-10-16T16:54:07.900Z,1.92
2022-10-16T16:56:37.527Z,1.50
2022-10-16T16:59:07.732Z,2.63
2022-10-16T17:01:38.057Z,2.67
2022-10-16T17:04:07.256Z,1.13
2022-10-16T17:06:35.431Z,3.42
2022-10-16T17:09:09.055Z,1.85
2022-10-16T17:11:36.763Z,2.63
2022-10-16T17:14:07.295Z,1.52
2022-10-16T17:16:37.694Z,1.92
2022-10-16T17:19:11.876Z,2.00
2022-10-16T17:21:44.998Z,2.97
2022-10-16T17:24:12.682Z,2.60
2022-10-16T17:26:43.124Z,1.90
2022-10-16T17:29:12.983Z,1.20
2022-10-16T17:31:40.997Z,1.70
2022-10-16T17:34:09.933Z,1.13
2022-10-16T17:36:41.374Z,0.73
2022-10-16T17:41:45.704Z,2.42
2022-10-16T17:44:20.720Z,0.60
2022-10-16T17:46:53.585Z,0.95
2022-10-16T17:51:54.416Z,3.13
2022-10-16T17:54:22.155Z,2.38
2022-10-16T17:56:49.765Z,2.70
2022-10-16T17:59:20.928Z,2.33
2022-10-16T18:01:53.604Z,2.55
2022-10-16T18:04:21.677Z,1.90
2022-10-16T18:06:49.473Z,3.50
2022-10-16T18:09:18.806Z,2.63
2022-10-16T18:11:46.695Z,2.40
2022-10-16T18:14:16.979Z,3.28
2022-10-16T18:16:47.997Z,2.28
2022-10-16T18:19:15.743Z,4.10
2022-10-16T18:21:43.325Z,2.30
2022-10-16T18:28:01.050Z,2.05
2022-10-16T18:30:29.526Z,2.92
2022-10-16T18:32:57.178Z,1.90
2022-10-16T18:35:24.688Z,1.90
2022-10-16T18:37:52.178Z,1.52
2022-10-16T18:40:25.164Z,1.80
2022-10-16T18:42:56.374Z,1.02
2022-10-16T18:45:24.123Z,2.25
2022-10-16T18:47:54.365Z,3.13
2022-10-16T18:50:24.389Z,1.57
2022-10-16T18:52:55.761Z,1.30
2022-10-16T18:55:30.770Z,2.05
2022-10-16T18:57:59.165Z,1.77
2022-10-16T19:00:26.731Z,3.13
2022-10-16T19:02:54.431Z,1.08
2022-10-16T19:05:22.094Z,1.88
2022-10-16T19:07:49.644Z,1.10
2022-10-16T19:10:17.720Z,0.65
2022-10-16T19:12:45.448Z,1.13
2022-10-16T19:15:13.006Z,0.57
2022-10-16T19:17:46.802Z,1.52
2022-10-16T19:20:17.672Z,1.30
2022-10-16T19:22:54.864Z,1.92
2022-10-16T19:25:23.012Z,2.20
2022-10-16T19:27:56.751Z,1.52
2022-10-16T19:30:27.712Z,1.60
2022-10-16T19:32:58.003Z,3.85
2022-10-16T19:35:27.483Z,1.75
2022-10-16T19:37:55.418Z,3.65
2022-10-16T19:40:22.961Z,2.83
2022-10-16T19:42:53.205Z,5.75
2022-10-16T19:45:27.506Z,2.95
2022-10-16T19:48:01.179Z,2.53
2022-10-16T19:50:28.809Z,3.13
2022-10-16T19:52:59.285Z,5.15
2022-10-16T19:55:27.369Z,3.27
2022-10-16T19:58:01.131Z,2.70
2022-10-16T20:00:32.033Z,2.50
2022-10-16T20:02:59.765Z,3.00
2022-10-16T20:05:27.832Z,2.63
2022-10-16T20:08:01.351Z,3.78
2022-10-16T20:10:36.576Z,3.47
2022-10-16T20:13:04.137Z,4.03
2022-10-16T20:15:37.051Z,2.60
2022-10-16T20:18:10.823Z,1.63
2022-10-16T20:20:39.838Z,2.30
2022-10-16T20:23:13.367Z,2.13
2022-10-16T20:25:47.726Z,2.15
2022-10-16T20:28:19.288Z,2.13
2022-10-16T20:30:52.684Z,2.47
2022-10-16T20:33:26.107Z,1.55
2022-10-16T20:35:53.799Z,1.77
2022-10-16T20:38:21.456Z,2.58
2022-10-16T20:40:52.100Z,3.03
2022-10-16T20:43:22.717Z,3.10
2022-10-16T20:46:04.958Z,1.88
2022-10-16T20:48:36.662Z,1.92
2022-10-16T20:51:31.815Z,1.75
2022-10-16T20:54:05.488Z,1.45
2022-10-16T20:56:40.321Z,1.08
2022-10-16T20:59:08.381Z,1.33
2022-10-16T21:01:42.015Z,1.48
2022-10-16T21:04:16.124Z,1.58
2022-10-16T21:06:46.615Z,1.63
2022-10-16T21:09:18.751Z,1.23
2022-10-16T21:12:01.738Z,1.35
2022-10-16T21:14:42.376Z,1.75
2022-10-16T21:17:24.487Z,1.10
2022-10-16T21:19:57.752Z,0.95
2022-10-16T21:22:30.055Z,2.45
2022-10-16T21:25:06.316Z,1.42
2022-10-16T21:27:38.210Z,1.55
2022-10-16T21:30:09.981Z,2.08
2022-10-16T21:32:41.224Z,1.38
2022-10-16T21:35:12.272Z,1.73
2022-10-16T21:37:39.911Z,1.30
2022-10-16T21:40:08.863Z,1.35
2022-10-16T21:42:39.749Z,2.00
2022-10-16T21:45:10.727Z,0.65
2022-10-16T21:47:41.052Z,0.93
2022-10-16T21:50:09.093Z,0.80
2022-10-16T21:52:54.287Z,0.43
2022-10-16T21:55:21.790Z,0.45
2022-10-16T21:57:54.981Z,2.17
2022-10-16T22:00:23.945Z,2.15
2022-10-16T22:02:54.792Z,0.88
2022-10-16T22:05:22.321Z,0.52
2022-10-16T22:07:52.649Z,1.65
2022-10-16T22:10:26.511Z,1.25
2022-10-16T22:12:54.775Z,1.77
2022-10-16T22:17:57.024Z,1.10
2022-10-16T22:20:27.865Z,1.38
2022-10-16T22:22:57.905Z,1.50
2022-10-16T22:25:28.460Z,1.95
2022-10-16T22:27:58.530Z,0.53
2022-10-16T22:30:29.927Z,1.95
2022-10-16T22:33:01.300Z,1.08
2022-10-16T22:35:29.003Z,1.00
2022-10-16T22:37:56.795Z,1.80
2022-10-16T22:40:24.610Z,1.67
2022-10-16T22:42:52.275Z,1.02
2022-10-16T22:45:22.673Z,1.88
2022-10-16T22:47:53.419Z,2.08
2022-10-16T22:50:20.891Z,2.15
2022-10-16T22:52:50.740Z,0.65
2022-10-16T22:55:18.844Z,2.83
2022-10-16T22:57:46.891Z,0.82
2022-10-16T23:00:18.601Z,2.20
2022-10-16T23:02:47.376Z,1.75
2022-10-16T23:05:15.072Z,1.20
2022-10-16T23:07:45.620Z,0.85
2022-10-16T23:10:13.208Z,1.40
2022-10-16T23:12:43.084Z,1.02
2022-10-16T23:15:13.431Z,0.50
2022-10-16T23:17:40.951Z,1.60
2022-10-16T23:20:11.924Z,2.08
2022-10-16T23:22:43.305Z,1.88
2022-10-16T23:25:13.482Z,0.73
2022-10-16T23:27:44.074Z,0.73
2022-10-16T23:30:11.635Z,1.35
2022-10-16T23:32:40.434Z,0.77
2022-10-16T23:35:10.875Z,0.55
2022-10-16T23:37:45.209Z,1.08
2022-10-16T23:40:15.344Z,1.38
2022-10-16T23:42:42.992Z,1.10
2022-10-16T23:45:10.459Z,2.40
2022-10-16T23:47:42.171Z,0.93
2022-10-16T23:50:13.042Z,1.42
2022-10-16T23:52:44.521Z,0.60
2022-10-16T23:55:11.931Z,1.10
2022-10-16T23:57:46.115Z,0.90
